Baker, Florida
Current Conditions -  °F | °C
As of 6:53 AM on Friday 28 Nov 2014 (Local Time) from KCEW Reporting Station
Clear Clear  
Wind Chill: 30°   Ceiling: Unl
Heat Index: 34°   Visibility: 10mi
Dew Point: 30°   Wind: 5mph
Humidity: 85%   Direction: 10°N
Pressure: 30.43"   Gusts: NA
Location:  30.8°N, 86.68°W
Report Text: KCEW 281253Z AUTO 01004KT 10SM CLR 01/M01 A3043 RMK AO2 SLP304 T00111011
Loading
Personal Weather Stations






























Interactive Weather Map New forecast layout! Learn more

10-Day Weather Forecast

Advertisements
Track Severe Weather on mobile